Time;durP1;ratioP1;P1;durP2;ratioP2;P2;SDS_P1;SDS_P2;PMS_P1;PMS_P2;Temp;Humidity;BMP_temperature;BMP_pressure;BME280_temperature;BME280_humidity;BME280_pressure;Samples;Min_cycle;Max_cycle;Signal;HPM_P1;HPM_P2
2022/10/06 00:02:22;;;;;;;6.75;3.33;;;;;;;7.88;38.40;97838.59;6295951;28;20086;-69
2022/10/06 00:05:24;;;;;;;;;;;;;;;7.88;38.37;97842.06;6296691;28;20048;-69
2022/10/06 00:08:25;;;;;;;4.70;3.10;;;;;;;7.91;38.61;97827.13;6297157;28;19932;-69
2022/10/06 00:11:29;;;;;;;4.60;3.70;;;;;;;7.85;38.62;97826.44;6296993;28;20040;-69
2022/10/06 00:14:30;;;;;;;7.32;3.80;;;;;;;7.78;38.95;97819.72;6296717;28;20044;-69
2022/10/06 00:17:35;;;;;;;8.07;3.90;;;;;;;7.70;39.07;97820.94;6295976;28;20052;-69
2022/10/06 00:20:42;;;;;;;4.97;3.70;;;;;;;7.83;38.80;97815.16;6296771;28;20040;-69
2022/10/06 00:23:44;;;;;;;4.32;2.70;;;;;;;7.82;38.61;97816.09;6294582;28;20040;-69
2022/10/06 00:26:46;;;;;;;4.80;2.83;;;;;;;7.69;39.01;97808.75;6295935;28;20052;-69
2022/10/06 00:29:47;;;;;;;5.32;3.50;;;;;;;7.70;39.25;97803.47;6296370;28;20033;-69
2022/10/06 00:33:03;;;;;;;4.30;3.20;;;;;;;7.59;39.43;97801.25;6296461;28;20044;-69
2022/10/06 00:36:07;;;;;;;5.38;3.70;;;;;;;7.56;39.35;97798.75;6294251;28;20052;-69
2022/10/06 00:39:11;;;;;;;5.78;3.97;;;;;;;7.56;39.72;97793.53;6296102;28;20045;-69
2022/10/06 00:42:59;;;;;;;4.50;2.80;;;;;;;7.48;39.54;97790.34;6295259;28;20091;-69
2022/10/06 00:46:10;;;;;;;4.88;3.10;;;;;;;7.38;40.07;97791.59;6283068;28;20052;-68
2022/10/06 00:49:32;;;;;;;6.20;3.35;;;;;;;7.46;39.46;97784.31;6295555;28;20044;-69
2022/10/06 00:52:34;;;;;;;4.10;3.70;;;;;;;7.61;39.44;97778.50;6295385;28;20040;-68
2022/10/06 00:55:41;;;;;;;5.20;3.70;;;;;;;7.49;39.34;97765.00;6296190;28;20505;-69
2022/10/06 00:58:42;;;;;;;6.90;3.58;;;;;;;7.46;39.64;97771.19;6295602;28;20048;-68
2022/10/06 01:01:55;;;;;;;4.85;3.55;;;;;;;7.51;39.44;97753.56;6295564;28;20395;-68
2022/10/06 01:05:02;;;;;;;7.20;4.60;;;;;;;7.58;38.93;97760.25;6295837;28;20055;-67
2022/10/06 01:08:04;;;;;;;5.85;3.97;;;;;;;7.57;38.97;97758.56;6295759;28;20054;-68
2022/10/06 01:11:13;;;;;;;5.90;4.10;;;;;;;7.55;39.11;97757.75;6295699;28;20064;-68
2022/10/06 01:14:18;;;;;;;4.85;3.50;;;;;;;7.52;39.22;97757.88;6295675;28;20454;-68
2022/10/06 01:17:45;;;;;;;4.57;3.42;;;;;;;7.69;38.60;97751.13;6294749;28;20048;-68
2022/10/06 01:20:55;;;;;;;6.53;4.35;;;;;;;7.75;38.60;97756.13;6295437;28;20049;-70
2022/10/06 01:24:01;;;;;;;7.35;3.60;;;;;;;7.52;38.99;97736.91;6295433;28;20422;-68
2022/10/06 01:27:04;;;;;;;5.47;3.78;;;;;;;7.49;39.00;97734.41;6295213;28;20056;-68
2022/10/06 01:30:08;;;;;;;7.78;4.05;;;;;;;7.52;38.54;97734.31;6295067;28;20040;-68
2022/10/06 01:33:12;;;;;;;4.47;3.33;;;;;;;7.63;38.39;97726.03;6295088;28;20421;-69
2022/10/06 01:36:19;;;;;;;7.10;3.95;;;;;;;7.62;38.30;97732.19;6295485;28;20068;-69
2022/10/06 01:39:26;;;;;;;6.35;4.30;;;;;;;7.56;38.20;97725.44;6295428;28;20437;-69
2022/10/06 01:42:30;;;;;;;4.40;3.40;;;;;;;7.44;38.35;97731.13;6295459;28;20040;-69
2022/10/06 01:45:32;;;;;;;9.15;3.60;;;;;;;7.43;38.18;97729.44;6294693;28;20036;-69
2022/10/06 01:48:35;;;;;;;5.65;3.42;;;;;;;7.44;38.23;97731.13;6294548;28;20044;-69
2022/10/06 01:51:44;;;;;;;5.82;4.03;;;;;;;7.43;38.58;97739.91;6295371;28;20538;-69
2022/10/06 01:54:46;;;;;;;7.03;4.97;;;;;;;7.52;38.18;97742.16;6294320;28;20052;-69
2022/10/06 01:57:47;;;;;;;6.70;4.20;;;;;;;7.45;38.55;97729.38;6292795;28;20548;-69
2022/10/06 02:00:53;;;;;;;5.57;4.25;;;;;;;7.43;38.59;97724.19;6293873;28;20082;-69
2022/10/06 02:04:03;;;;;;;7.25;4.10;;;;;;;7.48;38.25;97732.72;6294899;28;20033;-69
2022/10/06 02:07:06;;;;;;;6.90;4.38;;;;;;;7.42;38.50;97723.34;6294065;28;20502;-69
2022/10/06 02:10:08;;;;;;;8.95;4.10;;;;;;;7.43;38.81;97724.19;6294056;28;20052;-69
2022/10/06 02:13:13;;;;;;;6.55;3.72;;;;;;;7.23;39.11;97700.56;6294033;28;20056;-69
2022/10/06 02:16:14;;;;;;;6.88;3.70;;;;;;;7.12;39.54;97699.19;6292782;28;20048;-69
2022/10/06 02:19:16;;;;;;;10.30;5.60;;;;;;;7.01;39.38;97705.72;6294189;28;20049;-69
2022/10/06 02:22:20;;;;;;;6.70;4.40;;;;;;;6.98;39.75;97704.09;6294684;28;20052;-69
2022/10/06 02:25:26;;;;;;;7.22;4.15;;;;;;;6.87;39.93;97703.63;6294723;28;20051;-71
2022/10/06 02:28:30;;;;;;;8.05;4.15;;;;;;;6.78;40.14;97704.81;6294096;28;20059;-68
2022/10/06 02:31:34;;;;;;;6.07;4.20;;;;;;;6.60;40.46;97701.09;6294797;28;20113;-69
2022/10/06 02:34:38;;;;;;;6.35;3.67;;;;;;;6.48;40.71;97691.94;6294634;28;20494;-69
2022/10/06 02:37:45;;;;;;;5.68;4.28;;;;;;;6.56;41.18;97686.41;6294508;28;20044;-69
2022/10/06 02:40:49;;;;;;;6.65;4.22;;;;;;;6.59;40.80;97683.69;6293750;28;20067;-69
2022/10/06 02:43:56;;;;;;;6.50;3.70;;;;;;;6.57;40.93;97675.06;6294082;28;20048;-69
2022/10/06 02:46:58;;;;;;;7.03;3.88;;;;;;;6.47;41.19;97673.69;6296346;28;20145;-69
2022/10/06 02:50:02;;;;;;;7.85;4.10;;;;;;;6.48;41.13;97670.16;6298212;28;20052;-69
2022/10/06 02:53:12;;;;;;;6.47;3.85;;;;;;;6.47;41.09;97673.69;6298801;28;20040;-69
2022/10/06 02:56:23;;;;;;;14.95;4.13;;;;;;;6.52;41.10;97666.53;6298658;28;20044;-69
2022/10/06 02:59:27;;;;;;;7.30;4.30;;;;;;;6.63;40.88;97664.38;6297955;28;20049;-69
2022/10/06 03:02:29;;;;;;;6.25;4.00;;;;;;;6.53;41.12;97657.78;6298185;28;20163;-69
2022/10/06 03:05:31;;;;;;;9.45;4.45;;;;;;;6.51;41.08;97654.34;6298198;28;20044;-69
2022/10/06 03:08:33;;;;;;;8.63;5.10;;;;;;;6.61;41.45;97660.13;6297496;28;20074;-68
2022/10/06 03:11:37;;;;;;;7.78;4.15;;;;;;;6.53;40.93;97652.53;6298019;28;20055;-69
2022/10/06 03:14:39;;;;;;;5.90;3.90;;;;;;;6.65;41.55;97646.88;6297650;28;20524;-69
2022/10/06 03:17:46;;;;;;;8.02;4.25;;;;;;;6.65;41.59;97639.03;6297456;28;20044;-70
2022/10/06 03:20:50;;;;;;;6.10;3.83;;;;;;;6.62;41.65;97639.13;6298018;28;20036;-70
2022/10/06 03:23:53;;;;;;;9.48;5.00;;;;;;;6.71;41.08;97636.19;6297963;28;20179;-70
2022/10/06 03:26:55;;;;;;;8.85;4.75;;;;;;;6.75;41.22;97636.91;6297827;28;20060;-69
2022/10/06 03:29:56;;;;;;;7.38;4.78;;;;;;;6.95;40.76;97639.63;6298041;28;20040;-69
2022/10/06 03:33:00;;;;;;;7.30;3.90;;;;;;;6.91;40.40;97638.06;6297816;28;20040;-68
2022/10/06 03:36:13;;;;;;;6.70;4.22;;;;;;;7.08;40.25;97633.94;6297353;28;20456;-69
2022/10/06 03:39:14;;;;;;;7.00;4.18;;;;;;;7.22;39.58;97622.91;6297171;28;20049;-69
2022/10/06 03:42:16;;;;;;;15.13;8.90;;;;;;;7.23;39.52;97632.50;6296842;28;20049;-69
2022/10/06 03:45:20;;;;;;;9.50;5.25;;;;;;;7.48;38.83;97633.22;6297136;28;20040;-67
2022/10/06 03:48:21;;;;;;;;;;;;;;;7.63;38.46;97643.06;6296751;28;20541;-69
2022/10/06 03:51:28;;;;;;;8.23;4.65;;;;;;;7.90;37.91;97640.25;6297083;28;19928;-69
2022/10/06 03:54:30;;;;;;;6.07;3.63;;;;;;;7.86;37.84;97636.88;6296884;28;20040;-70
2022/10/06 03:57:31;;;;;;;7.60;3.95;;;;;;;7.94;37.37;97635.72;6296241;28;20149;-68
2022/10/06 04:00:34;;;;;;;10.02;5.07;;;;;;;7.85;37.57;97631.72;6297153;28;20040;-69
2022/10/06 04:03:35;;;;;;;7.32;5.03;;;;;;;7.75;37.77;97633.00;6296304;28;20047;-69
2022/10/06 04:06:40;;;;;;;8.02;4.28;;;;;;;7.72;37.19;97627.88;6296093;28;20135;-70
2022/10/06 04:09:47;;;;;;;9.05;4.78;;;;;;;7.58;37.93;97647.63;6296710;28;20044;-70
2022/10/06 04:12:52;;;;;;;4.28;3.45;;;;;;;7.65;37.31;97645.63;6295262;28;20044;-70
2022/10/06 04:15:56;;;;;;;6.20;3.88;;;;;;;7.63;37.76;97644.84;6296675;28;20628;-70
2022/10/06 04:19:00;;;;;;;7.38;4.13;;;;;;;7.75;37.23;97630.38;6296808;28;20116;-69
2022/10/06 04:22:07;;;;;;;5.88;4.22;;;;;;;7.73;37.67;97642.69;6296241;28;20056;-68
2022/10/06 04:25:09;;;;;;;8.20;4.65;;;;;;;7.88;37.35;97634.19;6296468;28;20091;-69
2022/10/06 04:28:15;;;;;;;8.35;5.13;;;;;;;8.04;36.87;97632.66;6296393;28;20040;-69
2022/10/06 04:31:22;;;;;;;6.63;4.28;;;;;;;7.98;36.77;97627.66;6296072;28;20049;-69
2022/10/06 04:34:25;;;;;;;6.45;3.30;;;;;;;8.21;36.40;97623.19;6296524;28;20040;-69
2022/10/06 04:37:27;;;;;;;7.82;4.70;;;;;;;8.38;36.07;97607.59;6295498;28;20048;-68
2022/10/06 04:40:34;;;;;;;7.45;4.93;;;;;;;8.75;34.97;97603.34;6296077;28;20056;-69
2022/10/06 04:43:36;;;;;;;7.72;4.63;;;;;;;8.83;35.22;97595.97;6295344;28;20040;-69
2022/10/06 04:46:37;;;;;;;6.35;4.25;;;;;;;9.09;34.74;97601.78;6295219;28;20045;-69
2022/10/06 04:49:41;;;;;;;8.27;4.97;;;;;;;9.15;34.38;97591.81;6295913;28;20044;-70
2022/10/06 04:52:46;;;;;;;9.43;5.18;;;;;;;9.23;34.14;97594.09;6296030;28;20048;-70
2022/10/06 04:55:57;;;;;;;7.38;5.45;;;;;;;9.28;34.21;97592.06;6295801;28;20417;-68
2022/10/06 04:58:59;;;;;;;8.63;5.13;;;;;;;9.40;33.87;97585.41;6295754;28;20533;-68
2022/10/06 05:02:01;;;;;;;7.43;4.75;;;;;;;9.44;33.85;97571.16;6295136;28;20047;-68
2022/10/06 05:05:03;;;;;;;7.57;4.47;;;;;;;9.66;33.13;97565.72;6295359;28;20047;-69
2022/10/06 05:08:07;;;;;;;7.72;4.53;;;;;;;9.86;33.22;97562.91;6294916;28;20040;-69
2022/10/06 05:11:17;;;;;;;5.50;3.22;;;;;;;10.32;31.87;97562.34;6295487;28;20390;-69
2022/10/06 05:14:18;;;;;;;6.15;3.05;;;;;;;10.28;31.42;97553.78;6294856;28;20139;-69
2022/10/06 05:17:22;;;;;;;7.63;4.38;;;;;;;10.34;31.24;97561.34;6295046;28;20053;-69
2022/10/06 05:20:23;;;;;;;;;;;;;;;10.41;31.03;97563.63;6295857;28;20044;-69
2022/10/06 05:23:26;;;;;;;7.65;4.72;;;;;;;10.61;30.86;97560.78;6295336;28;19924;-69
2022/10/06 05:26:33;;;;;;;7.47;4.63;;;;;;;13.32;27.58;97557.03;6295323;28;20040;-69
2022/10/06 05:29:35;;;;;;;7.57;4.72;;;;;;;16.24;24.00;97558.47;6294683;28;20074;-68
2022/10/06 05:32:45;;;;;;;6.55;5.15;;;;;;;17.38;21.71;97547.72;6295117;28;20044;-69
2022/10/06 05:35:57;;;;;;;7.07;4.82;;;;;;;19.40;19.92;97547.34;6295481;28;20056;-69
2022/10/06 05:38:59;;;;;;;8.07;5.03;;;;;;;20.34;18.55;97543.13;6295391;28;20445;-69
2022/10/06 05:42:01;;;;;;;6.93;4.50;;;;;;;22.08;17.45;97553.91;6294625;28;20056;-70
2022/10/06 05:45:04;;;;;;;9.50;5.10;;;;;;;22.66;16.46;97547.13;6295107;28;20126;-70
2022/10/06 05:48:07;;;;;;;7.10;4.78;;;;;;;23.95;15.76;97552.31;6294071;28;20155;-69
2022/10/06 05:51:13;;;;;;;5.88;3.47;;;;;;;25.20;14.14;97558.19;6295252;28;20044;-69
2022/10/06 05:54:17;;;;;;;6.25;3.75;;;;;;;25.22;13.66;97559.69;6295164;28;20421;-69
2022/10/06 05:57:19;;;;;;;5.72;4.03;;;;;;;26.02;13.22;97552.34;6294558;28;20053;-69
2022/10/06 06:00:22;;;;;;;5.72;3.95;;;;;;;26.48;12.30;97542.31;6295002;28;20421;-69
2022/10/06 06:03:24;;;;;;;8.02;4.47;;;;;;;26.00;12.99;97544.41;6294264;28;20053;-68
2022/10/06 06:06:29;;;;;;;5.05;3.95;;;;;;;25.66;13.07;97525.94;6294945;28;20494;-69
2022/10/06 06:09:31;;;;;;;8.32;3.92;;;;;;;26.30;12.49;97537.25;6293909;28;20059;-70
2022/10/06 06:12:32;;;;;;;8.02;4.40;;;;;;;27.32;11.96;97528.56;6293862;28;20051;-70
2022/10/06 06:19:01;;;;;;;9.60;5.32;;;;;;;26.66;12.19;97501.47;6294869;28;20128;-69
2022/10/06 06:22:05;;;;;;;8.85;4.75;;;;;;;25.84;12.54;97501.38;6296906;28;20045;-69
2022/10/06 06:25:11;;;;;;;9.88;5.55;;;;;;;23.79;13.77;97502.06;6299294;28;20040;-69
2022/10/06 06:28:16;;;;;;;10.27;6.05;;;;;;;22.84;14.71;97498.72;6298116;28;20540;-70
2022/10/06 06:31:25;;;;;;;8.95;4.70;;;;;;;23.70;14.06;97501.22;6298572;28;20118;-69
2022/10/06 06:34:27;;;;;;;7.28;3.75;;;;;;;24.65;13.07;97485.31;6298526;28;20182;-69
2022/10/06 06:37:30;;;;;;;4.65;3.83;;;;;;;25.82;12.36;97492.59;6298862;28;20040;-70
2022/10/06 06:40:38;;;;;;;6.63;4.35;;;;;;;27.01;11.36;97472.88;6298386;28;20037;-70
2022/10/06 06:43:41;;;;;;;7.05;4.38;;;;;;;27.13;11.39;97481.34;6297748;28;20103;-68
2022/10/06 06:46:48;;;;;;;7.68;3.95;;;;;;;27.47;11.31;97482.59;6297903;28;20044;-69
2022/10/06 06:49:57;;;;;;;5.32;3.25;;;;;;;28.87;10.74;97487.28;6298912;28;20040;-69
2022/10/06 06:53:01;;;;;;;5.30;3.42;;;;;;;28.63;10.51;97478.63;6299103;28;20045;-69
2022/10/06 06:56:07;;;;;;;6.35;3.80;;;;;;;26.89;11.38;97468.97;6297985;28;20052;-69
2022/10/06 06:59:09;;;;;;;6.20;3.78;;;;;;;26.78;11.36;97467.63;6298040;28;20044;-68
2022/10/06 07:02:11;;;;;;;4.65;3.35;;;;;;;25.83;11.77;97468.22;6298150;28;20048;-68
2022/10/06 07:05:17;;;;;;;4.95;3.75;;;;;;;24.86;12.86;97457.81;6298350;28;20041;-68
2022/10/06 07:08:21;;;;;;;4.00;3.38;;;;;;;22.54;14.46;97438.44;6298327;28;20045;-68
2022/10/06 07:11:33;;;;;;;5.60;3.25;;;;;;;20.53;16.07;97413.94;6297691;28;20049;-68
2022/10/06 07:25:05;;;;;;;7.43;4.43;;;;;;;20.34;16.16;97419.34;6298244;28;20040;-68
2022/10/06 07:28:11;;;;;;;4.32;2.75;;;;;;;24.00;13.28;97415.53;6297501;28;20075;-69
2022/10/06 07:31:17;;;;;;;9.65;3.70;;;;;;;22.52;14.77;97409.09;6297175;28;20387;-69
2022/10/06 07:34:18;;;;;;;7.60;3.88;;;;;;;22.02;15.23;97417.00;6297758;28;20502;-69
2022/10/06 07:37:22;;;;;;;8.00;4.35;;;;;;;20.91;15.97;97400.50;6297367;28;20048;-69
2022/10/06 07:40:24;;;;;;;5.88;4.10;;;;;;;21.04;15.70;97401.81;6297572;28;20044;-69
2022/10/06 07:43:28;;;;;;;5.97;4.00;;;;;;;20.92;16.05;97413.72;6295705;28;20075;-68
2022/10/06 07:46:35;;;;;;;7.10;3.88;;;;;;;19.67;16.74;97406.06;6297439;28;20485;-69
2022/10/06 07:49:41;;;;;;;8.70;4.60;;;;;;;18.97;17.53;97402.69;6297261;28;20520;-69
2022/10/06 07:52:49;;;;;;;6.38;4.20;;;;;;;19.94;16.82;97397.28;6297282;28;20505;-69
2022/10/06 07:55:54;;;;;;;8.13;4.00;;;;;;;21.92;15.36;97399.19;6296761;28;20098;-69
2022/10/06 07:59:01;;;;;;;4.40;2.53;;;;;;;21.64;15.21;97393.13;6296767;28;20090;-69
2022/10/06 08:02:03;;;;;;;6.50;4.10;;;;;;;21.32;15.74;97383.00;6297254;28;20413;-69
2022/10/06 08:05:07;;;;;;;5.25;3.42;;;;;;;23.26;14.72;97364.50;6296967;28;20060;-67
2022/10/06 08:08:09;;;;;;;6.57;4.38;;;;;;;23.58;14.71;97370.88;6296135;28;20189;-69
2022/10/06 08:11:11;;;;;;;5.90;4.03;;;;;;;24.85;13.49;97366.47;6296116;28;20520;-68
2022/10/06 08:14:15;;;;;;;5.18;3.45;;;;;;;23.77;14.03;97371.56;6296455;28;20138;-68
2022/10/06 08:17:22;;;;;;;8.20;4.82;;;;;;;23.28;14.29;97341.00;6295392;28;20036;-69
2022/10/06 08:20:26;;;;;;;8.40;4.20;;;;;;;23.35;14.23;97340.34;6296609;28;20050;-69
2022/10/06 08:23:28;;;;;;;8.45;3.67;;;;;;;24.16;13.80;97329.44;6296292;28;20059;-68
2022/10/06 08:26:32;;;;;;;3.38;2.28;;;;;;;25.41;12.82;97345.56;6296020;28;20514;-68
2022/10/06 08:29:35;;;;;;;7.47;3.97;;;;;;;23.84;13.53;97335.78;6295146;28;20145;-68
2022/10/06 08:32:41;;;;;;;9.35;4.57;;;;;;;25.19;12.80;97341.03;6296277;28;20044;-68
2022/10/06 08:35:42;;;;;;;6.93;3.92;;;;;;;25.62;12.75;97323.34;6295365;28;20044;-69
2022/10/06 08:38:48;;;;;;;5.35;3.67;;;;;;;25.20;13.16;97332.78;6295197;28;20418;-69
2022/10/06 08:41:52;;;;;;;7.15;3.10;;;;;;;24.63;13.38;97317.84;6295510;28;20178;-69
2022/10/06 08:44:58;;;;;;;;;;;;;;;23.87;13.87;97318.47;6295610;28;20422;-69
2022/10/06 08:48:08;;;;;;;8.10;3.53;;;;;;;22.73;14.55;97304.06;6295935;28;19921;-68
2022/10/06 08:51:27;;;;;;;5.68;3.25;;;;;;;22.57;15.03;97304.00;6295838;28;20063;-68
2022/10/06 08:55:00;;;;;;;6.82;3.17;;;;;;;23.25;14.36;97309.13;6295935;28;20036;-68
2022/10/06 08:58:29;;;;;;;6.82;3.60;;;;;;;22.84;14.73;97293.00;6295253;28;20059;-68
2022/10/06 09:01:47;;;;;;;6.18;3.55;;;;;;;22.11;15.28;97287.44;6295705;28;20040;-68
2022/10/06 09:04:51;;;;;;;9.45;3.47;;;;;;;21.43;15.72;97273.03;6294998;28;20399;-68
2022/10/06 09:08:16;;;;;;;5.95;3.67;;;;;;;20.45;16.55;97277.50;6295662;28;20053;-69
2022/10/06 09:11:20;;;;;;;4.90;2.65;;;;;;;19.46;17.18;97263.91;6295334;28;20049;-69
2022/10/06 09:14:48;;;;;;;6.35;3.05;;;;;;;18.77;17.29;97262.34;6294879;28;20098;-69
2022/10/06 09:18:18;;;;;;;6.93;2.88;;;;;;;18.47;17.71;97244.63;6295162;28;20079;-68
2022/10/06 09:21:32;;;;;;;5.85;3.03;;;;;;;18.29;17.87;97247.16;6295291;28;20520;-69
2022/10/06 09:24:44;;;;;;;8.73;4.20;;;;;;;17.66;19.08;97255.34;6295040;28;20052;-68
2022/10/06 09:27:52;;;;;;;7.03;3.70;;;;;;;17.57;19.58;97258.81;6294824;28;20133;-68
2022/10/06 09:30:59;;;;;;;6.40;3.40;;;;;;;17.52;19.34;97248.56;6295400;28;20048;-68
2022/10/06 09:34:23;;;;;;;6.43;3.60;;;;;;;17.26;19.25;97240.19;6294618;28;20043;-69
2022/10/06 09:37:26;;;;;;;7.00;3.83;;;;;;;16.76;19.72;97235.56;6294784;28;20045;-68
2022/10/06 09:40:35;;;;;;;6.72;3.30;;;;;;;16.49;20.03;97222.72;6295191;28;20036;-69
2022/10/06 09:43:38;;;;;;;5.32;2.58;;;;;;;16.52;20.38;97243.72;6294769;28;20139;-68
2022/10/06 09:46:42;;;;;;;8.98;3.85;;;;;;;16.21;20.73;97218.03;6293956;28;20046;-69
2022/10/06 09:50:02;;;;;;;6.35;2.65;;;;;;;16.31;20.87;97224.28;6294076;28;20045;-69
2022/10/06 09:53:15;;;;;;;6.28;3.28;;;;;;;16.30;20.86;97214.59;6294440;28;20437;-71
2022/10/06 09:56:19;;;;;;;;;;;;;;;16.38;20.69;97209.50;6299318;28;20036;-69
2022/10/06 09:59:40;;;;;;;7.00;3.05;;;;;;;16.04;21.13;97217.59;6299136;28;20066;-68
2022/10/06 10:02:43;;;;;;;7.78;4.38;;;;;;;15.83;21.16;97212.22;6299957;28;20036;-69
2022/10/06 10:05:47;;;;;;;6.75;4.30;;;;;;;15.76;21.43;97208.34;6299669;28;20536;-70
2022/10/06 10:09:09;;;;;;;6.97;3.28;;;;;;;15.62;21.66;97206.78;6299824;28;20062;-69
2022/10/06 10:12:23;;;;;;;7.65;3.50;;;;;;;15.80;21.35;97214.28;6299134;28;20052;-68
2022/10/06 10:15:30;;;;;;;5.85;2.90;;;;;;;15.78;21.45;97210.91;6299061;28;20047;-70
2022/10/06 10:18:34;;;;;;;6.95;3.50;;;;;;;15.76;21.43;97200.41;6299442;28;20051;-70
2022/10/06 10:21:36;;;;;;;5.68;2.85;;;;;;;15.76;21.68;97207.53;6298380;28;20048;-70
2022/10/06 10:25:30;;;;;;;5.78;2.75;;;;;;;15.80;21.71;97204.50;6299350;28;20537;-70
2022/10/06 10:28:50;;;;;;;5.22;3.00;;;;;;;15.69;21.96;97204.53;6225383;28;20050;-70
2022/10/06 10:32:11;;;;;;;7.40;2.80;;;;;;;15.68;22.05;97195.72;6299244;28;20045;-69
2022/10/06 10:35:31;;;;;;;8.15;2.72;;;;;;;15.74;22.02;97204.13;6298447;28;20048;-68
2022/10/06 10:38:40;;;;;;;5.43;3.05;;;;;;;15.63;21.95;97208.47;6298356;28;20048;-68
2022/10/06 10:41:51;;;;;;;8.00;3.90;;;;;;;15.54;22.14;97193.31;6299139;28;20512;-70
2022/10/06 10:45:03;;;;;;;9.45;3.45;;;;;;;15.50;22.15;97202.47;6299206;28;20460;-69
2022/10/06 10:48:34;;;;;;;7.22;3.60;;;;;;;15.41;22.19;97198.72;6299006;28;20159;-68
2022/10/06 10:51:46;;;;;;;4.63;2.88;;;;;;;15.41;22.26;97196.09;6298594;28;20413;-70
2022/10/06 10:55:03;;;;;;;9.40;5.57;;;;;;;15.35;22.54;97199.22;6298302;28;20044;-68
2022/10/06 10:58:16;;;;;;;8.48;3.88;;;;;;;15.29;22.70;97193.56;6298576;28;20040;-69
2022/10/06 11:01:41;;;;;;;9.80;3.33;;;;;;;15.43;22.60;97203.94;6298272;28;20040;-69
2022/10/06 11:04:56;;;;;;;6.20;3.10;;;;;;;15.29;22.72;97199.72;6298761;28;20045;-69
2022/10/06 11:07:57;;;;;;;7.47;3.00;;;;;;;15.17;22.81;97206.81;6296878;28;20079;-68
2022/10/06 11:11:07;;;;;;;6.18;3.28;;;;;;;15.25;23.04;97204.38;6298140;28;20041;-68
2022/10/06 11:14:33;;;;;;;6.30;3.20;;;;;;;14.82;25.38;97197.13;6298054;28;20041;-70
2022/10/06 11:17:49;;;;;;;6.10;3.13;;;;;;;14.53;27.25;97203.81;6298088;28;20052;-69
2022/10/06 11:21:00;;;;;;;7.05;3.25;;;;;;;14.42;26.81;97209.88;6297713;28;20037;-70
2022/10/06 11:24:20;;;;;;;6.80;3.40;;;;;;;14.49;27.33;97215.53;6297183;28;20082;-70
2022/10/06 11:27:24;;;;;;;11.00;4.85;;;;;;;14.42;28.38;97216.97;6297679;28;20410;-70
2022/10/06 11:30:32;;;;;;;8.18;3.92;;;;;;;14.59;28.03;97216.59;6296528;28;20502;-68
2022/10/06 11:33:51;;;;;;;6.57;3.78;;;;;;;14.64;27.76;97209.16;6297125;28;20047;-70
2022/10/06 11:37:04;;;;;;;8.25;3.85;;;;;;;14.76;27.93;97208.19;6297648;28;20040;-70
2022/10/06 11:40:30;;;;;;;12.50;5.20;;;;;;;14.89;28.17;97212.53;6297655;28;20048;-70
2022/10/06 11:44:05;;;;;;;8.05;3.67;;;;;;;15.01;28.50;97207.16;6297789;28;20048;-70
2022/10/06 11:47:41;;;;;;;9.02;4.55;;;;;;;15.08;28.07;97191.63;6297527;28;20041;-69
2022/10/06 11:50:43;;;;;;;10.40;3.85;;;;;;;15.12;28.83;97187.78;6297350;28;20041;-69
2022/10/06 11:53:47;;;;;;;5.30;2.42;;;;;;;15.12;28.83;97181.63;6297170;28;20131;-69
2022/10/06 11:56:48;;;;;;;5.78;2.45;;;;;;;15.13;28.57;97164.75;6296367;28;20082;-69
2022/10/06 11:59:55;;;;;;;6.68;2.75;;;;;;;15.30;28.87;97179.34;6296161;28;20516;-69
2022/10/06 12:03:29;;;;;;;6.95;3.80;;;;;;;15.33;29.02;97179.09;6296800;28;20258;-70
2022/10/06 12:06:43;;;;;;;7.13;3.67;;;;;;;15.24;29.24;97193.91;6289896;28;20426;-69
2022/10/06 12:09:47;;;;;;;9.82;3.95;;;;;;;15.21;29.13;97181.75;6295913;28;20414;-68
2022/10/06 12:12:52;;;;;;;;;;;;;;;15.47;28.34;97182.31;6296205;28;20135;-70
2022/10/06 12:16:11;;;;;;;8.05;3.88;;;;;;;15.27;28.48;97170.66;6296033;28;19916;-69
2022/10/06 12:19:18;;;;;;;5.57;3.30;;;;;;;15.14;28.83;97174.38;6295650;28;20045;-69
2022/10/06 12:22:35;;;;;;;9.63;3.83;;;;;;;15.15;28.71;97176.94;6296058;28;20059;-69
2022/10/06 12:25:52;;;;;;;9.20;3.95;;;;;;;14.96;28.67;97176.69;6296045;28;20040;-68
2022/10/06 12:29:37;;;;;;;6.30;3.63;;;;;;;14.98;28.45;97175.59;6295805;28;20048;-70
2022/10/06 12:32:56;;;;;;;7.63;3.00;;;;;;;14.99;28.01;97168.50;6295867;28;20040;-69
2022/10/06 12:36:04;;;;;;;8.50;3.00;;;;;;;14.93;28.20;97176.91;6296037;28;20043;-70
2022/10/06 12:39:23;;;;;;;7.85;2.38;;;;;;;14.99;27.94;97171.13;6295595;28;20044;-69
2022/10/06 12:42:30;;;;;;;4.72;2.88;;;;;;;14.93;27.94;97171.63;6295435;28;20079;-69
2022/10/06 12:45:34;;;;;;;4.30;2.22;;;;;;;14.86;27.73;97171.25;6295776;28;20056;-69
2022/10/06 12:48:41;;;;;;;6.53;2.05;;;;;;;14.88;27.69;97171.13;6295899;28;20059;-69
2022/10/06 12:51:46;;;;;;;5.38;2.17;;;;;;;14.80;27.74;97172.59;6296076;28;20502;-69
2022/10/06 12:54:58;;;;;;;5.55;2.60;;;;;;;14.82;27.70;97162.69;6294688;28;20032;-69
2022/10/06 12:58:02;;;;;;;6.25;1.90;;;;;;;14.75;27.81;97174.72;6295172;28;20548;-69
2022/10/06 13:01:11;;;;;;;5.57;2.10;;;;;;;14.91;27.65;97178.84;6295638;28;20040;-68
2022/10/06 13:04:43;;;;;;;5.97;2.30;;;;;;;14.90;27.59;97166.56;6295119;28;20089;-69
2022/10/06 13:07:59;;;;;;;6.85;1.83;;;;;;;14.73;27.77;97158.09;6293722;28;20048;-69
2022/10/06 13:11:25;;;;;;;6.57;1.70;;;;;;;14.88;27.60;97182.56;6294277;28;20041;-69
2022/10/06 13:14:26;;;;;;;5.07;2.28;;;;;;;14.66;27.50;97164.81;6295789;28;20036;-68
2022/10/06 13:17:34;;;;;;;4.88;1.85;;;;;;;14.70;27.28;97160.16;6294635;28;20076;-69
2022/10/06 13:20:56;;;;;;;4.50;2.17;;;;;;;14.74;27.09;97159.78;6295632;28;20051;-68
2022/10/06 13:23:59;;;;;;;5.30;1.60;;;;;;;14.75;26.97;97158.00;6294463;28;20549;-70
2022/10/06 13:27:03;;;;;;;5.65;1.45;;;;;;;14.79;26.81;97165.56;6294895;28;20051;-69
2022/10/06 13:30:20;;;;;;;10.63;2.50;;;;;;;14.70;26.79;97163.66;6292903;28;20514;-70
2022/10/06 13:33:31;;;;;;;6.30;2.22;;;;;;;14.66;26.69;97145.44;6294894;28;20398;-70
2022/10/06 13:36:36;;;;;;;7.50;2.88;;;;;;;14.69;26.67;97154.03;6295242;28;20041;-69
2022/10/06 13:39:39;;;;;;;5.65;1.55;;;;;;;14.68;26.63;97168.22;6295022;28;20044;-68
2022/10/06 13:42:45;;;;;;;6.30;2.10;;;;;;;14.67;26.97;97177.13;6294743;28;20064;-69
2022/10/06 13:45:52;;;;;;;5.72;1.70;;;;;;;14.57;27.10;97184.06;6295098;28;20209;-68
2022/10/06 13:48:59;;;;;;;3.47;1.30;;;;;;;14.49;27.35;97184.66;6294391;28;20056;-69
2022/10/06 13:52:14;;;;;;;5.40;1.88;;;;;;;14.32;27.86;97183.25;6294799;28;20044;-69
2022/10/06 13:55:22;;;;;;;5.80;1.70;;;;;;;14.31;28.11;97186.84;6294633;28;20044;-69
2022/10/06 13:58:28;;;;;;;6.70;2.05;;;;;;;14.13;28.42;97178.50;6295043;28;20057;-69
2022/10/06 14:01:33;;;;;;;6.78;2.00;;;;;;;14.15;28.77;97181.00;6293723;28;20036;-71
2022/10/06 14:04:34;;;;;;;5.72;3.00;;;;;;;14.06;29.76;97189.63;6294233;28;20060;-69
2022/10/06 14:07:42;;;;;;;5.82;2.42;;;;;;;13.89;30.32;97178.47;6294860;28;20121;-69
2022/10/06 14:10:58;;;;;;;10.63;2.70;;;;;;;13.90;31.55;97182.84;6294751;28;20044;-69
2022/10/06 14:14:04;;;;;;;1.90;1.25;;;;;;;13.52;32.28;97166.25;6294099;28;20063;-69
2022/10/06 14:17:20;;;;;;;2.40;1.63;;;;;;;13.52;32.77;97172.38;6294886;28;20105;-69
2022/10/06 14:20:40;;;;;;;8.13;1.75;;;;;;;13.16;34.77;97175.81;6294710;28;20421;-69
2022/10/06 14:23:52;;;;;;;2.72;2.00;;;;;;;12.82;35.88;97175.53;6294477;28;20056;-69
2022/10/06 14:27:00;;;;;;;6.68;2.03;;;;;;;12.45;37.01;97164.84;6294353;28;20087;-69
2022/10/06 14:30:02;;;;;;;4.78;1.50;;;;;;;12.28;37.03;97167.78;6293960;28;20075;-69
2022/10/06 14:33:07;;;;;;;3.22;2.05;;;;;;;12.28;36.97;97162.50;6294173;28;20170;-69
2022/10/06 14:36:26;;;;;;;4.22;2.30;;;;;;;12.41;37.01;97173.09;6294599;28;20041;-69
2022/10/06 14:39:30;;;;;;;5.88;2.20;;;;;;;12.45;36.75;97175.41;6294331;28;20047;-69
2022/10/06 14:42:31;;;;;;;4.38;1.90;;;;;;;12.43;37.01;97172.03;6296146;28;20044;-69
2022/10/06 14:45:35;;;;;;;5.07;1.73;;;;;;;12.45;37.39;97178.03;6298644;28;20186;-69
2022/10/06 14:48:36;;;;;;;4.97;1.90;;;;;;;12.34;37.98;97172.63;6297978;28;20052;-69
2022/10/06 14:51:42;;;;;;;3.92;1.90;;;;;;;12.38;38.08;97181.22;6298212;28;20044;-69
2022/10/06 14:54:47;;;;;;;5.15;1.88;;;;;;;12.31;38.76;97167.56;6298649;28;20049;-69
2022/10/06 14:57:57;;;;;;;4.65;2.45;;;;;;;12.05;39.86;97178.06;6298683;28;20036;-70
2022/10/06 15:01:08;;;;;;;7.20;2.28;;;;;;;12.03;40.29;97187.00;6298431;28;20040;-69
2022/10/06 15:04:14;;;;;;;3.88;2.10;;;;;;;12.18;40.31;97185.19;6298577;28;20628;-69